sensor_id;sensor_type;location;lat;lon;timestamp;P1;durP1;ratioP1;P2;durP2;ratioP2
76593;SDS011;65482;50.240;14.302;2023-12-29T00:00:33;4.45;;;2.97;;
76593;SDS011;65482;50.240;14.302;2023-12-29T00:03:18;6.18;;;3.15;;
76593;SDS011;65482;50.240;14.302;2023-12-29T00:05:44;6.13;;;3.13;;
76593;SDS011;65482;50.240;14.302;2023-12-29T00:08:09;5.95;;;3.75;;
76593;SDS011;65482;50.240;14.302;2023-12-29T00:10:35;5.78;;;3.13;;
76593;SDS011;65482;50.240;14.302;2023-12-29T00:13:00;5.93;;;2.97;;
76593;SDS011;65482;50.240;14.302;2023-12-29T00:15:26;6.47;;;2.92;;
76593;SDS011;65482;50.240;14.302;2023-12-29T00:17:52;5.38;;;2.67;;
76593;SDS011;65482;50.240;14.302;2023-12-29T00:20:18;5.22;;;3.30;;
76593;SDS011;65482;50.240;14.302;2023-12-29T00:22:43;6.00;;;3.22;;
76593;SDS011;65482;50.240;14.302;2023-12-29T00:25:09;4.10;;;3.00;;
76593;SDS011;65482;50.240;14.302;2023-12-29T00:27:35;6.80;;;3.80;;
76593;SDS011;65482;50.240;14.302;2023-12-29T00:30:02;7.60;;;3.50;;
76593;SDS011;65482;50.240;14.302;2023-12-29T00:32:28;5.20;;;3.20;;
76593;SDS011;65482;50.240;14.302;2023-12-29T00:34:53;8.73;;;3.35;;
76593;SDS011;65482;50.240;14.302;2023-12-29T00:37:19;5.40;;;3.38;;
76593;SDS011;65482;50.240;14.302;2023-12-29T00:39:44;6.20;;;3.15;;
76593;SDS011;65482;50.240;14.302;2023-12-29T00:42:10;5.53;;;3.03;;
76593;SDS011;65482;50.240;14.302;2023-12-29T00:44:35;5.53;;;2.88;;
76593;SDS011;65482;50.240;14.302;2023-12-29T00:47:01;4.43;;;3.08;;
76593;SDS011;65482;50.240;14.302;2023-12-29T00:49:26;5.30;;;2.65;;
76593;SDS011;65482;50.240;14.302;2023-12-29T00:51:52;5.47;;;2.88;;
76593;SDS011;65482;50.240;14.302;2023-12-29T00:54:18;4.72;;;2.83;;
76593;SDS011;65482;50.240;14.302;2023-12-29T00:56:50;5.40;;;2.85;;
76593;SDS011;65482;50.240;14.302;2023-12-29T00:59:17;5.45;;;2.55;;
76593;SDS011;65482;50.240;14.302;2023-12-29T01:01:44;3.83;;;2.60;;
76593;SDS011;65482;50.240;14.302;2023-12-29T01:04:09;4.47;;;2.65;;
76593;SDS011;65482;50.240;14.302;2023-12-29T01:06:35;4.05;;;2.70;;
76593;SDS011;65482;50.240;14.302;2023-12-29T01:09:01;4.97;;;2.70;;
76593;SDS011;65482;50.240;14.302;2023-12-29T01:11:27;4.25;;;2.60;;
76593;SDS011;65482;50.240;14.302;2023-12-29T01:13:53;4.72;;;2.60;;
76593;SDS011;65482;50.240;14.302;2023-12-29T01:16:18;7.07;;;3.03;;
76593;SDS011;65482;50.240;14.302;2023-12-29T01:18:44;3.97;;;2.70;;
76593;SDS011;65482;50.240;14.302;2023-12-29T01:21:10;5.50;;;2.80;;
76593;SDS011;65482;50.240;14.302;2023-12-29T01:23:35;4.72;;;2.55;;
76593;SDS011;65482;50.240;14.302;2023-12-29T01:26:01;3.70;;;2.58;;
76593;SDS011;65482;50.240;14.302;2023-12-29T01:28:26;3.35;;;2.53;;
76593;SDS011;65482;50.240;14.302;2023-12-29T01:30:52;5.55;;;3.05;;
76593;SDS011;65482;50.240;14.302;2023-12-29T01:33:17;4.95;;;2.67;;
76593;SDS011;65482;50.240;14.302;2023-12-29T01:35:44;4.68;;;2.60;;
76593;SDS011;65482;50.240;14.302;2023-12-29T01:38:10;5.85;;;2.70;;
76593;SDS011;65482;50.240;14.302;2023-12-29T01:40:44;4.05;;;2.63;;
76593;SDS011;65482;50.240;14.302;2023-12-29T01:43:11;5.45;;;2.58;;
76593;SDS011;65482;50.240;14.302;2023-12-29T01:45:37;5.78;;;2.80;;
76593;SDS011;65482;50.240;14.302;2023-12-29T01:48:02;5.93;;;2.80;;
76593;SDS011;65482;50.240;14.302;2023-12-29T01:50:29;5.05;;;2.60;;
76593;SDS011;65482;50.240;14.302;2023-12-29T01:52:54;4.60;;;2.80;;
76593;SDS011;65482;50.240;14.302;2023-12-29T01:55:22;3.75;;;2.58;;
76593;SDS011;65482;50.240;14.302;2023-12-29T01:57:51;4.15;;;2.70;;
76593;SDS011;65482;50.240;14.302;2023-12-29T02:00:17;3.90;;;2.53;;
76593;SDS011;65482;50.240;14.302;2023-12-29T02:02:46;5.30;;;2.70;;
76593;SDS011;65482;50.240;14.302;2023-12-29T02:05:13;4.43;;;2.70;;
76593;SDS011;65482;50.240;14.302;2023-12-29T02:07:40;6.53;;;3.00;;
76593;SDS011;65482;50.240;14.302;2023-12-29T02:10:07;5.20;;;2.80;;
76593;SDS011;65482;50.240;14.302;2023-12-29T02:12:33;4.57;;;2.65;;
76593;SDS011;65482;50.240;14.302;2023-12-29T02:15:00;3.85;;;2.30;;
76593;SDS011;65482;50.240;14.302;2023-12-29T02:17:26;4.20;;;2.60;;
76593;SDS011;65482;50.240;14.302;2023-12-29T02:19:56;3.92;;;2.45;;
76593;SDS011;65482;50.240;14.302;2023-12-29T02:22:22;5.10;;;2.85;;
76593;SDS011;65482;50.240;14.302;2023-12-29T02:24:48;4.32;;;2.50;;
76593;SDS011;65482;50.240;14.302;2023-12-29T02:27:23;5.10;;;2.75;;
76593;SDS011;65482;50.240;14.302;2023-12-29T02:32:51;7.45;;;3.05;;
76593;SDS011;65482;50.240;14.302;2023-12-29T02:35:26;4.03;;;2.40;;
76593;SDS011;65482;50.240;14.302;2023-12-29T02:37:54;3.95;;;2.67;;
76593;SDS011;65482;50.240;14.302;2023-12-29T02:40:21;4.10;;;2.78;;
76593;SDS011;65482;50.240;14.302;2023-12-29T02:42:48;5.35;;;2.80;;
76593;SDS011;65482;50.240;14.302;2023-12-29T02:45:14;3.88;;;2.67;;
76593;SDS011;65482;50.240;14.302;2023-12-29T02:47:41;4.40;;;2.83;;
76593;SDS011;65482;50.240;14.302;2023-12-29T02:50:08;4.20;;;2.60;;
76593;SDS011;65482;50.240;14.302;2023-12-29T02:52:34;3.85;;;2.60;;
76593;SDS011;65482;50.240;14.302;2023-12-29T02:54:59;4.25;;;2.15;;
76593;SDS011;65482;50.240;14.302;2023-12-29T02:57:25;4.47;;;2.70;;
76593;SDS011;65482;50.240;14.302;2023-12-29T02:59:50;3.97;;;2.15;;
76593;SDS011;65482;50.240;14.302;2023-12-29T03:02:16;3.97;;;2.67;;
76593;SDS011;65482;50.240;14.302;2023-12-29T03:04:42;4.45;;;2.35;;
76593;SDS011;65482;50.240;14.302;2023-12-29T03:07:07;3.60;;;2.20;;
76593;SDS011;65482;50.240;14.302;2023-12-29T03:09:33;4.47;;;2.30;;
76593;SDS011;65482;50.240;14.302;2023-12-29T03:11:59;4.80;;;2.15;;
76593;SDS011;65482;50.240;14.302;2023-12-29T03:14:24;3.97;;;2.30;;
76593;SDS011;65482;50.240;14.302;2023-12-29T03:16:50;3.20;;;2.33;;
76593;SDS011;65482;50.240;14.302;2023-12-29T03:19:15;4.47;;;2.10;;
76593;SDS011;65482;50.240;14.302;2023-12-29T03:21:41;3.22;;;2.20;;
76593;SDS011;65482;50.240;14.302;2023-12-29T03:24:07;3.40;;;2.58;;
76593;SDS011;65482;50.240;14.302;2023-12-29T03:26:32;3.33;;;2.22;;
76593;SDS011;65482;50.240;14.302;2023-12-29T03:28:59;5.57;;;2.47;;
76593;SDS011;65482;50.240;14.302;2023-12-29T03:31:24;3.00;;;2.20;;
76593;SDS011;65482;50.240;14.302;2023-12-29T03:33:50;3.47;;;2.40;;
76593;SDS011;65482;50.240;14.302;2023-12-29T03:36:15;4.03;;;2.33;;
76593;SDS011;65482;50.240;14.302;2023-12-29T03:38:41;3.92;;;2.33;;
76593;SDS011;65482;50.240;14.302;2023-12-29T03:41:07;4.47;;;2.17;;
76593;SDS011;65482;50.240;14.302;2023-12-29T03:43:33;3.13;;;2.25;;
76593;SDS011;65482;50.240;14.302;2023-12-29T03:45:58;5.20;;;2.60;;
76593;SDS011;65482;50.240;14.302;2023-12-29T03:48:24;3.45;;;2.20;;
76593;SDS011;65482;50.240;14.302;2023-12-29T03:50:50;3.28;;;2.35;;
76593;SDS011;65482;50.240;14.302;2023-12-29T03:53:15;4.82;;;2.13;;
76593;SDS011;65482;50.240;14.302;2023-12-29T03:55:41;3.65;;;2.10;;
76593;SDS011;65482;50.240;14.302;2023-12-29T03:58:07;3.63;;;2.10;;
76593;SDS011;65482;50.240;14.302;2023-12-29T04:00:32;3.50;;;2.22;;
76593;SDS011;65482;50.240;14.302;2023-12-29T04:02:58;5.28;;;1.90;;
76593;SDS011;65482;50.240;14.302;2023-12-29T04:05:24;2.78;;;1.80;;
76593;SDS011;65482;50.240;14.302;2023-12-29T04:07:49;3.15;;;2.30;;
76593;SDS011;65482;50.240;14.302;2023-12-29T04:10:15;2.47;;;1.90;;
76593;SDS011;65482;50.240;14.302;2023-12-29T04:12:41;4.20;;;2.10;;
76593;SDS011;65482;50.240;14.302;2023-12-29T04:15:06;3.00;;;1.80;;
76593;SDS011;65482;50.240;14.302;2023-12-29T04:17:32;3.03;;;2.10;;
76593;SDS011;65482;50.240;14.302;2023-12-29T04:19:58;4.72;;;2.05;;
76593;SDS011;65482;50.240;14.302;2023-12-29T04:22:25;2.92;;;2.00;;
76593;SDS011;65482;50.240;14.302;2023-12-29T04:24:50;2.92;;;1.80;;
76593;SDS011;65482;50.240;14.302;2023-12-29T04:27:16;2.10;;;1.52;;
76593;SDS011;65482;50.240;14.302;2023-12-29T04:29:43;3.33;;;2.05;;
76593;SDS011;65482;50.240;14.302;2023-12-29T04:32:10;4.13;;;2.05;;
76593;SDS011;65482;50.240;14.302;2023-12-29T04:34:35;5.55;;;2.10;;
76593;SDS011;65482;50.240;14.302;2023-12-29T04:37:01;3.70;;;1.77;;
76593;SDS011;65482;50.240;14.302;2023-12-29T04:39:26;2.67;;;2.03;;
76593;SDS011;65482;50.240;14.302;2023-12-29T04:41:52;2.90;;;2.03;;
76593;SDS011;65482;50.240;14.302;2023-12-29T04:44:18;4.30;;;2.00;;
76593;SDS011;65482;50.240;14.302;2023-12-29T04:46:43;3.17;;;1.90;;
76593;SDS011;65482;50.240;14.302;2023-12-29T04:49:09;3.15;;;2.10;;
76593;SDS011;65482;50.240;14.302;2023-12-29T04:51:35;3.67;;;2.38;;
76593;SDS011;65482;50.240;14.302;2023-12-29T04:54:00;2.95;;;2.05;;
76593;SDS011;65482;50.240;14.302;2023-12-29T04:56:26;2.90;;;1.88;;
76593;SDS011;65482;50.240;14.302;2023-12-29T04:58:51;3.65;;;1.77;;
76593;SDS011;65482;50.240;14.302;2023-12-29T05:01:17;2.58;;;1.55;;
76593;SDS011;65482;50.240;14.302;2023-12-29T05:03:42;2.47;;;1.60;;
76593;SDS011;65482;50.240;14.302;2023-12-29T05:06:08;2.60;;;1.58;;
76593;SDS011;65482;50.240;14.302;2023-12-29T05:08:34;1.95;;;1.50;;
76593;SDS011;65482;50.240;14.302;2023-12-29T05:11:00;4.60;;;1.85;;
76593;SDS011;65482;50.240;14.302;2023-12-29T05:13:26;3.25;;;1.80;;
76593;SDS011;65482;50.240;14.302;2023-12-29T05:15:51;3.10;;;1.52;;
76593;SDS011;65482;50.240;14.302;2023-12-29T05:18:17;3.00;;;1.80;;
76593;SDS011;65482;50.240;14.302;2023-12-29T05:20:42;3.30;;;1.83;;
76593;SDS011;65482;50.240;14.302;2023-12-29T05:23:08;3.03;;;1.90;;
76593;SDS011;65482;50.240;14.302;2023-12-29T05:25:34;3.47;;;1.77;;
76593;SDS011;65482;50.240;14.302;2023-12-29T05:27:59;2.65;;;1.80;;
76593;SDS011;65482;50.240;14.302;2023-12-29T05:30:25;3.50;;;1.75;;
76593;SDS011;65482;50.240;14.302;2023-12-29T05:32:51;3.75;;;1.63;;
76593;SDS011;65482;50.240;14.302;2023-12-29T05:35:17;2.45;;;1.77;;
76593;SDS011;65482;50.240;14.302;2023-12-29T05:37:42;3.33;;;1.88;;
76593;SDS011;65482;50.240;14.302;2023-12-29T05:40:08;4.28;;;2.17;;
76593;SDS011;65482;50.240;14.302;2023-12-29T05:42:34;2.40;;;1.77;;
76593;SDS011;65482;50.240;14.302;2023-12-29T05:45:00;3.30;;;2.10;;
76593;SDS011;65482;50.240;14.302;2023-12-29T05:47:25;2.55;;;1.77;;
76593;SDS011;65482;50.240;14.302;2023-12-29T05:49:51;3.08;;;2.00;;
76593;SDS011;65482;50.240;14.302;2023-12-29T05:52:16;4.60;;;2.05;;
76593;SDS011;65482;50.240;14.302;2023-12-29T05:54:42;3.00;;;1.90;;
76593;SDS011;65482;50.240;14.302;2023-12-29T05:57:07;2.58;;;2.00;;
76593;SDS011;65482;50.240;14.302;2023-12-29T05:59:33;2.50;;;1.70;;
76593;SDS011;65482;50.240;14.302;2023-12-29T06:01:59;3.42;;;1.90;;
76593;SDS011;65482;50.240;14.302;2023-12-29T06:04:24;2.40;;;1.70;;
76593;SDS011;65482;50.240;14.302;2023-12-29T06:06:50;2.88;;;2.00;;
76593;SDS011;65482;50.240;14.302;2023-12-29T06:09:15;2.50;;;1.90;;
76593;SDS011;65482;50.240;14.302;2023-12-29T06:11:41;3.45;;;1.90;;
76593;SDS011;65482;50.240;14.302;2023-12-29T06:14:07;4.07;;;2.03;;
76593;SDS011;65482;50.240;14.302;2023-12-29T06:16:32;3.22;;;1.92;;
76593;SDS011;65482;50.240;14.302;2023-12-29T06:18:58;2.63;;;1.90;;
76593;SDS011;65482;50.240;14.302;2023-12-29T06:21:24;4.55;;;1.88;;
76593;SDS011;65482;50.240;14.302;2023-12-29T06:23:50;2.97;;;1.92;;
76593;SDS011;65482;50.240;14.302;2023-12-29T06:26:16;3.30;;;1.92;;
76593;SDS011;65482;50.240;14.302;2023-12-29T06:28:44;3.75;;;2.30;;
76593;SDS011;65482;50.240;14.302;2023-12-29T06:31:10;6.60;;;2.10;;
76593;SDS011;65482;50.240;14.302;2023-12-29T06:33:38;3.45;;;2.38;;
76593;SDS011;65482;50.240;14.302;2023-12-29T06:36:05;2.13;;;1.80;;
76593;SDS011;65482;50.240;14.302;2023-12-29T06:38:32;4.47;;;2.10;;
76593;SDS011;65482;50.240;14.302;2023-12-29T06:40:59;3.40;;;2.00;;
76593;SDS011;65482;50.240;14.302;2023-12-29T06:43:27;4.32;;;2.28;;
76593;SDS011;65482;50.240;14.302;2023-12-29T06:45:52;3.55;;;2.10;;
76593;SDS011;65482;50.240;14.302;2023-12-29T06:48:18;2.65;;;1.90;;
76593;SDS011;65482;50.240;14.302;2023-12-29T06:50:43;3.03;;;2.15;;
76593;SDS011;65482;50.240;14.302;2023-12-29T06:53:09;3.78;;;2.20;;
76593;SDS011;65482;50.240;14.302;2023-12-29T06:55:35;4.20;;;2.33;;
76593;SDS011;65482;50.240;14.302;2023-12-29T06:58:00;3.35;;;2.00;;
76593;SDS011;65482;50.240;14.302;2023-12-29T07:00:26;5.85;;;2.10;;
76593;SDS011;65482;50.240;14.302;2023-12-29T07:02:52;3.17;;;2.15;;
76593;SDS011;65482;50.240;14.302;2023-12-29T07:05:18;3.50;;;2.05;;
76593;SDS011;65482;50.240;14.302;2023-12-29T07:07:43;2.58;;;1.80;;
76593;SDS011;65482;50.240;14.302;2023-12-29T07:10:11;2.10;;;1.90;;
76593;SDS011;65482;50.240;14.302;2023-12-29T07:12:38;2.97;;;1.85;;
76593;SDS011;65482;50.240;14.302;2023-12-29T07:15:05;2.88;;;1.88;;
76593;SDS011;65482;50.240;14.302;2023-12-29T07:17:31;2.55;;;1.70;;
76593;SDS011;65482;50.240;14.302;2023-12-29T07:19:57;3.15;;;2.22;;
76593;SDS011;65482;50.240;14.302;2023-12-29T07:22:23;2.90;;;1.85;;
76593;SDS011;65482;50.240;14.302;2023-12-29T07:24:48;3.45;;;2.00;;
76593;SDS011;65482;50.240;14.302;2023-12-29T07:27:14;4.30;;;2.13;;
76593;SDS011;65482;50.240;14.302;2023-12-29T07:29:40;4.75;;;2.20;;
76593;SDS011;65482;50.240;14.302;2023-12-29T07:32:05;2.83;;;2.10;;
76593;SDS011;65482;50.240;14.302;2023-12-29T07:34:31;3.92;;;1.90;;
76593;SDS011;65482;50.240;14.302;2023-12-29T07:36:57;9.43;;;3.22;;
76593;SDS011;65482;50.240;14.302;2023-12-29T07:39:23;7.25;;;2.70;;
76593;SDS011;65482;50.240;14.302;2023-12-29T07:41:49;5.47;;;2.90;;
76593;SDS011;65482;50.240;14.302;2023-12-29T07:44:16;4.22;;;2.38;;
76593;SDS011;65482;50.240;14.302;2023-12-29T07:46:42;2.88;;;2.03;;
76593;SDS011;65482;50.240;14.302;2023-12-29T07:49:11;3.03;;;2.10;;
76593;SDS011;65482;50.240;14.302;2023-12-29T07:51:41;3.00;;;1.83;;
76593;SDS011;65482;50.240;14.302;2023-12-29T07:54:07;3.35;;;2.28;;
76593;SDS011;65482;50.240;14.302;2023-12-29T07:56:33;3.67;;;2.10;;
76593;SDS011;65482;50.240;14.302;2023-12-29T07:58:59;5.32;;;2.50;;
76593;SDS011;65482;50.240;14.302;2023-12-29T08:01:25;4.20;;;2.45;;
76593;SDS011;65482;50.240;14.302;2023-12-29T08:03:52;5.32;;;2.58;;
76593;SDS011;65482;50.240;14.302;2023-12-29T08:06:18;3.80;;;2.20;;
76593;SDS011;65482;50.240;14.302;2023-12-29T08:08:43;3.38;;;2.10;;
76593;SDS011;65482;50.240;14.302;2023-12-29T08:11:12;3.50;;;2.22;;
76593;SDS011;65482;50.240;14.302;2023-12-29T08:13:40;4.32;;;2.25;;
76593;SDS011;65482;50.240;14.302;2023-12-29T08:16:05;5.10;;;2.30;;
76593;SDS011;65482;50.240;14.302;2023-12-29T08:18:32;5.05;;;2.55;;
76593;SDS011;65482;50.240;14.302;2023-12-29T08:20:58;4.18;;;2.42;;
76593;SDS011;65482;50.240;14.302;2023-12-29T08:23:25;5.13;;;2.13;;
76593;SDS011;65482;50.240;14.302;2023-12-29T08:25:52;3.75;;;2.45;;
76593;SDS011;65482;50.240;14.302;2023-12-29T08:28:17;4.63;;;2.40;;
76593;SDS011;65482;50.240;14.302;2023-12-29T08:30:43;2.80;;;2.25;;
76593;SDS011;65482;50.240;14.302;2023-12-29T08:33:11;2.97;;;2.15;;
76593;SDS011;65482;50.240;14.302;2023-12-29T08:35:39;3.97;;;2.20;;
76593;SDS011;65482;50.240;14.302;2023-12-29T08:38:05;5.10;;;2.50;;
76593;SDS011;65482;50.240;14.302;2023-12-29T08:40:31;3.83;;;2.30;;
76593;SDS011;65482;50.240;14.302;2023-12-29T08:42:57;3.85;;;2.40;;
76593;SDS011;65482;50.240;14.302;2023-12-29T08:45:22;3.10;;;2.00;;
76593;SDS011;65482;50.240;14.302;2023-12-29T08:47:48;4.05;;;2.28;;
76593;SDS011;65482;50.240;14.302;2023-12-29T08:50:14;3.50;;;2.38;;
76593;SDS011;65482;50.240;14.302;2023-12-29T08:52:40;4.68;;;2.47;;
76593;SDS011;65482;50.240;14.302;2023-12-29T08:55:07;3.55;;;2.17;;
76593;SDS011;65482;50.240;14.302;2023-12-29T08:57:33;3.63;;;2.40;;
76593;SDS011;65482;50.240;14.302;2023-12-29T08:59:59;4.65;;;2.30;;
76593;SDS011;65482;50.240;14.302;2023-12-29T09:02:25;3.30;;;2.13;;
76593;SDS011;65482;50.240;14.302;2023-12-29T09:04:50;2.60;;;2.08;;
76593;SDS011;65482;50.240;14.302;2023-12-29T09:07:16;3.17;;;2.05;;
76593;SDS011;65482;50.240;14.302;2023-12-29T09:09:42;4.55;;;2.10;;
76593;SDS011;65482;50.240;14.302;2023-12-29T09:12:07;3.95;;;1.90;;
76593;SDS011;65482;50.240;14.302;2023-12-29T09:14:34;3.15;;;2.00;;
76593;SDS011;65482;50.240;14.302;2023-12-29T09:17:00;3.13;;;2.20;;
76593;SDS011;65482;50.240;14.302;2023-12-29T09:19:26;2.97;;;2.03;;
76593;SDS011;65482;50.240;14.302;2023-12-29T09:21:52;4.03;;;2.33;;
76593;SDS011;65482;50.240;14.302;2023-12-29T09:24:17;2.50;;;1.90;;
76593;SDS011;65482;50.240;14.302;2023-12-29T09:26:43;3.85;;;2.08;;
76593;SDS011;65482;50.240;14.302;2023-12-29T09:29:09;3.50;;;1.90;;
76593;SDS011;65482;50.240;14.302;2023-12-29T09:31:35;5.95;;;1.80;;
76593;SDS011;65482;50.240;14.302;2023-12-29T09:34:01;2.65;;;1.92;;
76593;SDS011;65482;50.240;14.302;2023-12-29T09:36:27;9.25;;;2.60;;
76593;SDS011;65482;50.240;14.302;2023-12-29T09:38:53;5.03;;;1.73;;
76593;SDS011;65482;50.240;14.302;2023-12-29T09:41:19;7.18;;;1.90;;
76593;SDS011;65482;50.240;14.302;2023-12-29T09:43:48;2.90;;;2.08;;
76593;SDS011;65482;50.240;14.302;2023-12-29T09:46:18;5.32;;;1.90;;
76593;SDS011;65482;50.240;14.302;2023-12-29T09:48:46;3.80;;;1.88;;
76593;SDS011;65482;50.240;14.302;2023-12-29T09:51:16;4.53;;;1.98;;
76593;SDS011;65482;50.240;14.302;2023-12-29T09:53:42;3.28;;;1.77;;
76593;SDS011;65482;50.240;14.302;2023-12-29T09:56:08;5.88;;;1.92;;
76593;SDS011;65482;50.240;14.302;2023-12-29T09:58:36;5.93;;;2.05;;
76593;SDS011;65482;50.240;14.302;2023-12-29T10:01:03;3.95;;;2.10;;
76593;SDS011;65482;50.240;14.302;2023-12-29T10:03:33;3.22;;;1.85;;
76593;SDS011;65482;50.240;14.302;2023-12-29T10:06:03;10.10;;;2.72;;
76593;SDS011;65482;50.240;14.302;2023-12-29T10:08:35;2.97;;;1.70;;
76593;SDS011;65482;50.240;14.302;2023-12-29T10:11:02;4.10;;;2.00;;
76593;SDS011;65482;50.240;14.302;2023-12-29T10:13:30;5.05;;;2.00;;
76593;SDS011;65482;50.240;14.302;2023-12-29T10:16:11;22.02;;;2.38;;
76593;SDS011;65482;50.240;14.302;2023-12-29T10:18:57;86.00;;;5.20;;
76593;SDS011;65482;50.240;14.302;2023-12-29T10:22:34;3.65;;;1.65;;
76593;SDS011;65482;50.240;14.302;2023-12-29T10:24:39;5.85;;;2.10;;
76593;SDS011;65482;50.240;14.302;2023-12-29T10:27:07;2.70;;;1.48;;
76593;SDS011;65482;50.240;14.302;2023-12-29T10:29:33;4.05;;;2.00;;
76593;SDS011;65482;50.240;14.302;2023-12-29T10:31:59;4.03;;;1.90;;
76593;SDS011;65482;50.240;14.302;2023-12-29T10:34:25;14.57;;;2.40;;
76593;SDS011;65482;50.240;14.302;2023-12-29T10:37:01;18.33;;;3.05;;
76593;SDS011;65482;50.240;14.302;2023-12-29T10:39:34;13.75;;;3.97;;
76593;SDS011;65482;50.240;14.302;2023-12-29T10:42:07;21.85;;;3.80;;
76593;SDS011;65482;50.240;14.302;2023-12-29T10:44:34;3.08;;;1.75;;
76593;SDS011;65482;50.240;14.302;2023-12-29T10:47:11;4.55;;;2.33;;
76593;SDS011;65482;50.240;14.302;2023-12-29T10:49:39;4.30;;;1.98;;
76593;SDS011;65482;50.240;14.302;2023-12-29T10:52:12;3.63;;;1.60;;
76593;SDS011;65482;50.240;14.302;2023-12-29T10:54:41;2.40;;;1.73;;
76593;SDS011;65482;50.240;14.302;2023-12-29T10:57:08;3.35;;;2.13;;
76593;SDS011;65482;50.240;14.302;2023-12-29T10:59:35;3.40;;;1.85;;
76593;SDS011;65482;50.240;14.302;2023-12-29T11:02:01;2.88;;;1.90;;
76593;SDS011;65482;50.240;14.302;2023-12-29T11:04:30;3.83;;;2.20;;
76593;SDS011;65482;50.240;14.302;2023-12-29T11:06:56;6.85;;;1.90;;
76593;SDS011;65482;50.240;14.302;2023-12-29T11:09:31;2.88;;;2.05;;
76593;SDS011;65482;50.240;14.302;2023-12-29T11:12:00;4.13;;;2.25;;
76593;SDS011;65482;50.240;14.302;2023-12-29T11:14:30;4.20;;;1.90;;
76593;SDS011;65482;50.240;14.302;2023-12-29T11:16:59;2.13;;;1.55;;
76593;SDS011;65482;50.240;14.302;2023-12-29T11:19:26;2.97;;;2.05;;
76593;SDS011;65482;50.240;14.302;2023-12-29T11:21:52;2.38;;;1.73;;
76593;SDS011;65482;50.240;14.302;2023-12-29T11:24:20;2.58;;;1.85;;
76593;SDS011;65482;50.240;14.302;2023-12-29T11:26:46;4.88;;;2.17;;
76593;SDS011;65482;50.240;14.302;2023-12-29T11:29:16;2.55;;;1.70;;
76593;SDS011;65482;50.240;14.302;2023-12-29T11:31:43;2.60;;;1.98;;
76593;SDS011;65482;50.240;14.302;2023-12-29T11:34:12;11.75;;;2.22;;
76593;SDS011;65482;50.240;14.302;2023-12-29T11:36:45;2.97;;;1.58;;
76593;SDS011;65482;50.240;14.302;2023-12-29T11:39:24;3.17;;;1.90;;
76593;SDS011;65482;50.240;14.302;2023-12-29T11:42:06;3.23;;;1.73;;
76593;SDS011;65482;50.240;14.302;2023-12-29T11:44:37;2.92;;;1.50;;
76593;SDS011;65482;50.240;14.302;2023-12-29T11:47:03;3.30;;;2.00;;
76593;SDS011;65482;50.240;14.302;2023-12-29T11:50:14;2.70;;;1.70;;
76593;SDS011;65482;50.240;14.302;2023-12-29T11:52:33;2.25;;;1.60;;
76593;SDS011;65482;50.240;14.302;2023-12-29T11:55:07;7.23;;;1.60;;
76593;SDS011;65482;50.240;14.302;2023-12-29T11:57:36;3.35;;;1.73;;
76593;SDS011;65482;50.240;14.302;2023-12-29T12:00:02;4.15;;;1.65;;
76593;SDS011;65482;50.240;14.302;2023-12-29T12:02:31;1.80;;;1.50;;
76593;SDS011;65482;50.240;14.302;2023-12-29T12:04:59;2.67;;;1.73;;
76593;SDS011;65482;50.240;14.302;2023-12-29T12:09:50;8.40;;;1.73;;
76593;SDS011;65482;50.240;14.302;2023-12-29T12:17:52;1.88;;;1.45;;
76593;SDS011;65482;50.240;14.302;2023-12-29T12:20:18;2.30;;;1.50;;
76593;SDS011;65482;50.240;14.302;2023-12-29T12:22:44;4.18;;;1.52;;
76593;SDS011;65482;50.240;14.302;2023-12-29T12:25:11;6.10;;;2.70;;
76593;SDS011;65482;50.240;14.302;2023-12-29T12:27:38;15.90;;;2.03;;
76593;SDS011;65482;50.240;14.302;2023-12-29T12:30:04;6.00;;;2.00;;
76593;SDS011;65482;50.240;14.302;2023-12-29T12:32:32;11.93;;;3.78;;
76593;SDS011;65482;50.240;14.302;2023-12-29T12:34:57;9.07;;;2.50;;
76593;SDS011;65482;50.240;14.302;2023-12-29T12:37:24;6.28;;;2.60;;
76593;SDS011;65482;50.240;14.302;2023-12-29T12:39:51;9.05;;;3.13;;
76593;SDS011;65482;50.240;14.302;2023-12-29T12:42:18;13.20;;;2.53;;
76593;SDS011;65482;50.240;14.302;2023-12-29T12:45:06;9.13;;;2.78;;
76593;SDS011;65482;50.240;14.302;2023-12-29T12:47:41;9.90;;;3.13;;
76593;SDS011;65482;50.240;14.302;2023-12-29T12:50:11;8.27;;;2.60;;
76593;SDS011;65482;50.240;14.302;2023-12-29T12:52:37;5.82;;;2.45;;
76593;SDS011;65482;50.240;14.302;2023-12-29T12:55:05;7.03;;;2.75;;
76593;SDS011;65482;50.240;14.302;2023-12-29T12:57:32;10.50;;;2.70;;
76593;SDS011;65482;50.240;14.302;2023-12-29T13:00:00;5.30;;;2.13;;
76593;SDS011;65482;50.240;14.302;2023-12-29T13:02:27;4.57;;;2.03;;
76593;SDS011;65482;50.240;14.302;2023-12-29T13:04:55;4.85;;;2.08;;
76593;SDS011;65482;50.240;14.302;2023-12-29T13:07:21;13.15;;;3.70;;
76593;SDS011;65482;50.240;14.302;2023-12-29T13:09:47;10.85;;;3.03;;
76593;SDS011;65482;50.240;14.302;2023-12-29T13:12:15;5.88;;;2.40;;
76593;SDS011;65482;50.240;14.302;2023-12-29T13:14:42;5.30;;;2.03;;
76593;SDS011;65482;50.240;14.302;2023-12-29T13:17:09;9.65;;;2.88;;
76593;SDS011;65482;50.240;14.302;2023-12-29T13:19:36;7.28;;;2.97;;
76593;SDS011;65482;50.240;14.302;2023-12-29T13:22:05;8.07;;;2.78;;
76593;SDS011;65482;50.240;14.302;2023-12-29T13:24:32;5.80;;;2.30;;
76593;SDS011;65482;50.240;14.302;2023-12-29T13:26:58;4.53;;;1.85;;
76593;SDS011;65482;50.240;14.302;2023-12-29T13:29:29;7.63;;;2.10;;
76593;SDS011;65482;50.240;14.302;2023-12-29T13:31:58;12.93;;;3.47;;
76593;SDS011;65482;50.240;14.302;2023-12-29T13:34:31;11.35;;;3.25;;
76593;SDS011;65482;50.240;14.302;2023-12-29T13:37:06;8.25;;;2.70;;
76593;SDS011;65482;50.240;14.302;2023-12-29T13:39:44;22.52;;;3.90;;
76593;SDS011;65482;50.240;14.302;2023-12-29T13:42:17;9.30;;;3.33;;
76593;SDS011;65482;50.240;14.302;2023-12-29T13:44:44;10.98;;;3.30;;
76593;SDS011;65482;50.240;14.302;2023-12-29T13:47:11;12.27;;;2.97;;
76593;SDS011;65482;50.240;14.302;2023-12-29T13:49:37;12.63;;;3.95;;
76593;SDS011;65482;50.240;14.302;2023-12-29T13:52:03;10.88;;;3.15;;
76593;SDS011;65482;50.240;14.302;2023-12-29T13:54:29;10.52;;;3.15;;
76593;SDS011;65482;50.240;14.302;2023-12-29T13:56:55;7.38;;;2.63;;
76593;SDS011;65482;50.240;14.302;2023-12-29T13:59:30;9.68;;;3.78;;
76593;SDS011;65482;50.240;14.302;2023-12-29T14:02:15;20.00;;;5.15;;
76593;SDS011;65482;50.240;14.302;2023-12-29T14:04:48;18.15;;;4.85;;
76593;SDS011;65482;50.240;14.302;2023-12-29T14:07:13;18.73;;;4.88;;
76593;SDS011;65482;50.240;14.302;2023-12-29T14:09:40;13.30;;;3.83;;
76593;SDS011;65482;50.240;14.302;2023-12-29T14:12:06;13.10;;;3.65;;
76593;SDS011;65482;50.240;14.302;2023-12-29T14:14:32;16.17;;;4.13;;
76593;SDS011;65482;50.240;14.302;2023-12-29T14:16:57;11.75;;;3.42;;
76593;SDS011;65482;50.240;14.302;2023-12-29T14:19:23;14.27;;;3.78;;
76593;SDS011;65482;50.240;14.302;2023-12-29T14:21:55;24.45;;;4.47;;
76593;SDS011;65482;50.240;14.302;2023-12-29T14:24:21;31.60;;;5.30;;
76593;SDS011;65482;50.240;14.302;2023-12-29T14:29:18;12.85;;;3.97;;
76593;SDS011;65482;50.240;14.302;2023-12-29T14:31:44;21.40;;;5.60;;
76593;SDS011;65482;50.240;14.302;2023-12-29T14:34:11;19.45;;;6.38;;
76593;SDS011;65482;50.240;14.302;2023-12-29T14:36:41;14.43;;;4.45;;
76593;SDS011;65482;50.240;14.302;2023-12-29T14:39:08;32.42;;;5.32;;
76593;SDS011;65482;50.240;14.302;2023-12-29T14:41:35;11.45;;;2.97;;
76593;SDS011;65482;50.240;14.302;2023-12-29T14:44:01;9.52;;;2.70;;
76593;SDS011;65482;50.240;14.302;2023-12-29T14:46:27;12.07;;;3.10;;